createdAt,value
2018-12-07T00:01:43.702Z,98258.78
2018-12-07T00:04:19.845Z,98258.80
2018-12-07T00:06:51.857Z,98260.87
2018-12-07T00:09:24.120Z,98255.23
2018-12-07T00:12:00.113Z,98262.17
2018-12-07T00:14:32.188Z,98260.09
2018-12-07T00:17:08.351Z,98246.95
2018-12-07T00:19:47.957Z,98247.84
2018-12-07T00:22:18.641Z,98255.32
2018-12-07T00:24:55.692Z,98262.63
2018-12-07T00:27:27.768Z,98266.10
2018-12-07T00:29:59.830Z,98263.94
2018-12-07T00:32:35.956Z,98252.80
2018-12-07T00:35:06.358Z,98250.67
2018-12-07T00:37:39.291Z,98245.55
2018-12-07T00:40:10.143Z,98244.74
2018-12-07T00:42:42.471Z,98241.70
2018-12-07T00:45:12.879Z,98242.08
2018-12-07T00:47:45.042Z,98245.92
2018-12-07T00:50:15.167Z,98229.94
2018-12-07T00:52:51.584Z,98233.81
2018-12-07T00:55:39.340Z,98227.69
2018-12-07T00:58:16.064Z,98234.20
2018-12-07T01:00:48.141Z,98230.72
2018-12-07T01:03:24.432Z,98240.25
2018-12-07T01:05:56.511Z,98229.84
2018-12-07T01:08:29.492Z,98232.90
2018-12-07T01:11:05.713Z,98225.06
2018-12-07T01:13:37.839Z,98228.48
2018-12-07T01:16:10.668Z,98222.81
2018-12-07T01:18:47.678Z,98226.64
2018-12-07T01:21:19.793Z,98225.79
2018-12-07T01:23:52.709Z,98218.33
2018-12-07T01:26:25.157Z,98227.05
2018-12-07T01:28:55.507Z,98226.13
2018-12-07T01:31:31.502Z,98221.86
2018-12-07T01:34:04.113Z,98222.31
2018-12-07T01:36:40.377Z,98216.74
2018-12-07T01:39:13.417Z,98217.37
2018-12-07T01:41:45.477Z,98221.41
2018-12-07T01:44:22.615Z,98211.34
2018-12-07T01:46:55.665Z,98211.84
2018-12-07T01:49:31.970Z,98210.63
2018-12-07T01:52:08.072Z,98203.24
2018-12-07T01:54:44.288Z,98197.42
2018-12-07T01:57:20.510Z,98200.85
2018-12-07T01:59:53.417Z,98203.88
2018-12-07T02:02:24.816Z,98204.33
2018-12-07T02:04:57.181Z,98200.33
2018-12-07T02:07:34.792Z,98204.71
2018-12-07T02:10:08.147Z,98199.44
2018-12-07T02:12:40.599Z,98200.30
2018-12-07T02:15:16.892Z,98200.73
2018-12-07T02:17:48.877Z,98200.28
2018-12-07T02:20:21.853Z,98190.72
2018-12-07T02:22:54.312Z,98188.02
2018-12-07T02:25:24.412Z,98189.22
2018-12-07T02:28:00.511Z,98183.19
2018-12-07T02:30:32.724Z,98190.37
2018-12-07T02:33:08.975Z,98185.23
2018-12-07T02:35:45.042Z,98181.84
2018-12-07T02:38:22.343Z,98178.02
2018-12-07T02:40:58.575Z,98168.92
2018-12-07T02:43:30.628Z,98162.91
2018-12-07T02:46:01.047Z,98156.84
2018-12-07T02:48:33.820Z,98155.97
2018-12-07T02:51:06.149Z,98144.46
2018-12-07T02:53:39.087Z,98150.63
2018-12-07T02:56:11.155Z,98152.73
2018-12-07T02:58:41.419Z,98146.23
2018-12-07T03:01:18.491Z,98143.19
2018-12-07T03:03:55.626Z,98146.63
2018-12-07T03:06:35.909Z,98136.56
2018-12-07T03:09:08.876Z,98138.29
2018-12-07T03:11:46.090Z,98128.92
2018-12-07T03:14:22.307Z,98135.38
2018-12-07T03:16:59.182Z,98138.39
2018-12-07T03:19:35.483Z,98128.81
2018-12-07T03:22:07.515Z,98129.77
2018-12-07T03:24:43.978Z,98127.16
2018-12-07T03:27:16.319Z,98127.95
2018-12-07T03:29:49.299Z,98126.08
2018-12-07T03:32:21.855Z,98118.40
2018-12-07T03:34:51.946Z,98118.94
2018-12-07T03:37:28.879Z,98118.94
2018-12-07T03:40:01.191Z,98115.43
2018-12-07T03:42:38.380Z,98119.34
2018-12-07T03:45:07.909Z,98112.92
2018-12-07T03:47:38.687Z,98117.20
2018-12-07T03:50:10.768Z,98107.72
2018-12-07T03:52:43.133Z,98116.08
2018-12-07T03:55:14.037Z,98108.16
2018-12-07T03:57:46.473Z,98110.37
2018-12-07T04:00:18.837Z,98105.70
2018-12-07T04:02:55.235Z,98103.86
2018-12-07T04:05:27.306Z,98101.50
2018-12-07T04:08:00.244Z,98097.09
2018-12-07T04:10:33.292Z,98091.44
2018-12-07T04:13:09.336Z,98095.41
2018-12-07T04:15:39.670Z,98097.51
2018-12-07T04:18:15.692Z,98089.70
2018-12-07T04:20:49.700Z,98083.73
2018-12-07T04:23:25.773Z,98100.23
2018-12-07T04:26:01.961Z,98100.29
2018-12-07T04:28:40.505Z,98102.17
2018-12-07T04:31:12.707Z,98091.21
2018-12-07T04:33:49.047Z,98091.25
2018-12-07T04:36:25.134Z,98078.62
2018-12-07T04:38:55.336Z,98081.25
2018-12-07T04:41:27.426Z,98077.91
2018-12-07T04:43:58.044Z,98068.42
2018-12-07T04:46:31.963Z,98065.81
2018-12-07T04:49:08.176Z,98062.56
2018-12-07T04:51:40.910Z,98063.90
2018-12-07T04:54:13.129Z,98061.16
2018-12-07T04:56:43.743Z,98067.67
2018-12-07T04:59:16.679Z,98071.03
2018-12-07T05:01:49.188Z,98065.83
2018-12-07T05:04:21.377Z,98058.96
2018-12-07T05:06:53.660Z,98062.35
2018-12-07T05:09:25.924Z,98055.96
2018-12-07T05:11:58.605Z,98051.28
2018-12-07T05:14:37.614Z,98045.72
2018-12-07T05:17:07.125Z,98039.97
2018-12-07T05:19:39.914Z,98053.95
2018-12-07T05:22:16.975Z,98060.02
2018-12-07T05:24:49.023Z,98051.79
2018-12-07T05:27:25.300Z,98050.38
2018-12-07T05:29:58.140Z,98045.36
2018-12-07T05:32:30.430Z,98055.80
2018-12-07T05:35:02.573Z,98050.18
2018-12-07T05:42:42.839Z,98049.13
2018-12-07T05:45:13.350Z,98038.11
2018-12-07T06:10:19.596Z,98034.47
2018-12-07T06:12:53.632Z,98030.72
2018-12-07T06:15:30.439Z,98031.92
2018-12-07T06:18:07.000Z,98017.54
2018-12-07T06:20:37.824Z,98016.63
2018-12-07T06:23:09.875Z,98019.19
2018-12-07T06:25:46.983Z,98014.66
2018-12-07T06:28:17.078Z,98001.05
2018-12-07T06:30:49.487Z,97999.09
2018-12-07T06:33:21.532Z,97992.19
2018-12-07T06:35:54.419Z,97987.83
2018-12-07T06:38:26.624Z,97985.66
2018-12-07T06:40:58.796Z,97988.27
2018-12-07T06:43:30.988Z,97986.81
2018-12-07T06:46:03.058Z,97981.02
2018-12-07T06:48:38.939Z,97988.44
2018-12-07T06:51:10.910Z,97983.53
2018-12-07T06:53:42.873Z,97990.00
2018-12-07T06:56:12.971Z,97980.45
2018-12-07T06:58:43.792Z,97985.17
2018-12-07T07:01:19.902Z,97985.12
2018-12-07T07:03:56.228Z,97979.40
2018-12-07T07:06:29.073Z,97981.50
2018-12-07T07:09:01.438Z,97979.38
2018-12-07T07:11:35.826Z,97977.29
2018-12-07T07:14:12.263Z,97971.05
2018-12-07T07:16:44.738Z,97973.44
2018-12-07T07:19:17.853Z,97974.69
2018-12-07T07:21:49.930Z,97975.41
2018-12-07T07:24:22.473Z,97973.19
2018-12-07T07:26:51.895Z,97972.77
2018-12-07T07:29:22.594Z,97969.32
2018-12-07T07:31:54.901Z,97968.02
2018-12-07T07:34:27.042Z,97963.77
2018-12-07T07:36:59.938Z,97955.84
2018-12-07T07:39:32.428Z,97966.13
2018-12-07T07:42:04.675Z,97956.89
2018-12-07T07:44:34.509Z,97946.76
2018-12-07T07:47:06.648Z,97950.95
2018-12-07T07:49:38.537Z,97943.31
2018-12-07T07:52:15.447Z,97939.96
2018-12-07T07:54:47.690Z,97938.30
2018-12-07T07:57:19.926Z,97931.34
2018-12-07T07:59:49.906Z,97935.02
2018-12-07T08:02:22.676Z,97943.63
2018-12-07T08:04:54.635Z,97936.05
2018-12-07T08:07:26.879Z,97931.40
2018-12-07T08:09:58.734Z,97926.80
2018-12-07T08:12:31.398Z,97923.03
2018-12-07T08:27:36.422Z,97912.95
2018-12-07T08:30:09.900Z,97903.50
2018-12-07T08:32:42.804Z,97900.63
2018-12-07T08:35:13.629Z,97897.09
2018-12-07T08:37:50.182Z,97889.08
2018-12-07T08:40:22.324Z,97882.42
2018-12-07T08:42:53.269Z,97887.41
2018-12-07T08:45:25.489Z,97883.29
2018-12-07T08:48:02.112Z,97886.47
2018-12-07T08:50:32.811Z,97885.27
2018-12-07T08:53:05.696Z,97881.25
2018-12-07T08:55:36.047Z,97881.94
2018-12-07T08:58:06.261Z,97882.08
2018-12-07T09:00:42.472Z,97879.56
2018-12-07T09:03:14.505Z,97868.78
2018-12-07T09:05:46.811Z,97864.23
2018-12-07T09:08:22.988Z,97871.82
2018-12-07T09:10:59.772Z,97863.84
2018-12-07T09:13:30.408Z,97865.92
2018-12-07T09:16:02.523Z,97863.52
2018-12-07T09:18:32.799Z,97861.42
2018-12-07T09:21:04.986Z,97855.31
2018-12-07T09:23:41.212Z,97865.59
2018-12-07T09:26:13.302Z,97853.17
2018-12-07T09:28:46.301Z,97854.78
2018-12-07T09:31:18.419Z,97853.27
2018-12-07T09:33:54.504Z,97852.77
2018-12-07T09:36:30.734Z,97847.58
2018-12-07T09:39:07.057Z,97846.20
2018-12-07T09:41:40.868Z,97836.97
2018-12-07T09:44:13.073Z,97836.42
2018-12-07T09:46:43.357Z,97834.48
2018-12-07T09:49:16.249Z,97823.27
2018-12-07T09:51:49.077Z,97825.05
2018-12-07T09:54:21.337Z,97814.23
2018-12-07T09:56:58.225Z,97814.95
2018-12-07T09:59:34.489Z,97806.03
2018-12-07T10:02:06.980Z,97799.72
2018-12-07T10:04:39.244Z,97789.02
2018-12-07T10:07:09.419Z,97785.42
2018-12-07T10:09:41.468Z,97779.54
2018-12-07T10:12:17.714Z,97774.98
2018-12-07T10:14:49.898Z,97775.39
2018-12-07T10:17:25.957Z,97779.67
2018-12-07T10:19:58.147Z,97765.91
2018-12-07T10:22:30.409Z,97761.05
2018-12-07T10:25:02.784Z,97758.05
2018-12-07T10:27:35.802Z,97758.31
2018-12-07T10:45:19.340Z,97707.85
2018-12-07T10:47:52.087Z,97703.31
2018-12-07T10:50:28.468Z,97696.56
2018-12-07T10:53:00.880Z,97688.53
2018-12-07T10:55:31.823Z,97682.47
2018-12-07T10:58:03.925Z,97672.01
2018-12-07T11:00:45.503Z,97667.88
2018-12-07T11:03:23.725Z,97667.45
2018-12-07T11:06:02.134Z,97661.20
2018-12-07T11:08:40.267Z,97651.36
2018-12-07T11:11:17.950Z,97645.45
2018-12-07T11:13:56.124Z,97645.95
2018-12-07T11:16:34.086Z,97640.31
2018-12-07T11:19:10.521Z,97631.64
2018-12-07T11:21:52.823Z,97637.31
2018-12-07T11:24:30.591Z,97634.41
2018-12-07T11:27:13.569Z,97629.05
2018-12-07T11:29:55.245Z,97630.19
2018-12-07T11:32:34.658Z,97624.43
2018-12-07T11:35:09.364Z,97612.67
2018-12-07T11:37:43.028Z,97612.99
2018-12-07T11:40:15.920Z,97606.00
2018-12-07T11:42:51.028Z,97597.05
2018-12-07T12:00:25.057Z,97567.12
2018-12-07T12:02:57.316Z,97558.49
2018-12-07T12:05:29.361Z,97561.91
2018-12-07T12:08:01.689Z,97555.20
2018-12-07T12:10:34.720Z,97557.14
2018-12-07T12:13:10.792Z,97553.29
2018-12-07T12:15:43.672Z,97556.94
2018-12-07T12:18:16.657Z,97541.11
2018-12-07T12:20:52.951Z,97541.72
2018-12-07T12:23:25.391Z,97534.05
2018-12-07T12:25:58.916Z,97539.77
2018-12-07T12:28:35.072Z,97524.02
2018-12-07T12:31:07.241Z,97514.70
2018-12-07T12:33:39.486Z,97515.05
2018-12-07T12:36:17.134Z,97510.22
2018-12-07T12:38:49.800Z,97502.45
2018-12-07T12:41:25.828Z,97506.60
2018-12-07T12:43:55.856Z,97497.81
2018-12-07T12:46:33.221Z,97491.58
2018-12-07T12:49:05.631Z,97488.22
2018-12-07T12:51:38.293Z,97486.37
2018-12-07T12:54:10.929Z,97486.74
2018-12-07T12:56:42.968Z,97479.00
2018-12-07T13:01:46.197Z,97483.18
2018-12-07T13:04:17.141Z,97473.22
2018-12-07T13:06:49.517Z,97477.73
2018-12-07T13:09:21.651Z,97480.28
2018-12-07T13:11:57.871Z,97479.20
2018-12-07T13:14:30.776Z,97473.52
2018-12-07T13:17:07.019Z,97468.67
2018-12-07T13:19:43.414Z,97463.08
2018-12-07T13:22:13.627Z,97456.85
2018-12-07T13:24:45.852Z,97465.27
2018-12-07T13:27:18.306Z,97468.59
2018-12-07T13:29:54.652Z,97464.55
2018-12-07T13:32:26.705Z,97459.41
2018-12-07T13:34:59.024Z,97459.25
2018-12-07T13:37:31.177Z,97460.55
2018-12-07T13:40:01.556Z,97439.66
2018-12-07T13:42:34.566Z,97437.78
2018-12-07T13:45:08.436Z,97435.86
2018-12-07T13:47:41.416Z,97433.27
2018-12-07T13:50:19.119Z,97434.42
2018-12-07T13:52:51.822Z,97436.64
2018-12-07T13:55:24.224Z,97434.16
2018-12-07T13:58:02.436Z,97431.25
2018-12-07T14:00:38.536Z,97428.94
2018-12-07T14:03:10.672Z,97416.63
2018-12-07T14:05:41.119Z,97424.78
2018-12-07T14:08:11.503Z,97419.88
2018-12-07T14:10:48.384Z,97421.77
2018-12-07T14:13:19.591Z,97424.63
2018-12-07T14:15:57.323Z,97422.28
2018-12-07T14:18:28.445Z,97421.77
2018-12-07T14:21:04.770Z,97423.08
2018-12-07T14:23:35.931Z,97410.71
2018-12-07T14:26:08.487Z,97417.53
2018-12-07T14:28:41.394Z,97415.45
2018-12-07T14:31:13.786Z,97411.47
2018-12-07T14:33:46.076Z,97415.56
2018-12-07T14:36:18.240Z,97406.80
2018-12-07T14:38:50.489Z,97412.92
2018-12-07T14:41:23.604Z,97408.96
2018-12-07T14:43:59.988Z,97408.47
2018-12-07T14:46:31.132Z,97402.27
2018-12-07T14:49:02.130Z,97398.39
2018-12-07T14:51:35.332Z,97401.52
2018-12-07T14:54:08.321Z,97387.63
2018-12-07T14:56:41.433Z,97389.86
2018-12-07T14:59:17.669Z,97388.45
2018-12-07T15:01:50.078Z,97379.69
2018-12-07T15:04:22.681Z,97370.64
2018-12-07T15:06:59.010Z,97367.88
2018-12-07T15:09:32.119Z,97359.39
2018-12-07T15:12:08.444Z,97359.03
2018-12-07T15:14:44.727Z,97355.25
2018-12-07T15:17:15.730Z,97338.27
2018-12-07T15:19:48.164Z,97344.00
2018-12-07T15:22:25.182Z,97335.63
2018-12-07T15:24:59.440Z,97330.94
2018-12-07T15:27:30.105Z,97307.38
2018-12-07T15:30:02.435Z,97315.58
2018-12-07T15:32:34.761Z,97314.50
2018-12-07T15:35:08.678Z,97314.04
2018-12-07T15:37:41.556Z,97316.52
2018-12-07T15:40:14.515Z,97320.13
2018-12-07T15:42:51.279Z,97321.42
2018-12-07T15:45:28.685Z,97330.28
2018-12-07T15:48:01.565Z,97322.59
2018-12-07T15:50:33.784Z,97314.77
2018-12-07T15:53:06.255Z,97308.52
2018-12-07T15:55:39.073Z,97290.19
2018-12-07T15:58:12.697Z,97292.25
2018-12-07T16:00:45.512Z,97288.21
2018-12-07T16:03:22.736Z,97287.78
2018-12-07T16:05:55.087Z,97291.90
2018-12-07T16:08:31.402Z,97282.41
2018-12-07T16:11:03.554Z,97271.98
2018-12-07T16:13:36.566Z,97263.59
2018-12-07T16:16:07.384Z,97268.62
2018-12-07T16:18:43.844Z,97265.48
2018-12-07T16:21:16.641Z,97249.60
2018-12-07T16:23:48.819Z,97244.08
2018-12-07T16:26:20.996Z,97243.32
2018-12-07T16:28:53.135Z,97239.96
2018-12-07T16:31:25.215Z,97239.15
2018-12-07T16:33:58.458Z,97240.85
2018-12-07T16:36:31.718Z,97229.44
2018-12-07T16:39:02.396Z,97219.98
2018-12-07T16:41:34.613Z,97213.25
2018-12-07T16:44:07.628Z,97215.47
2018-12-07T16:46:39.785Z,97208.97
2018-12-07T16:49:13.031Z,97196.31
2018-12-07T16:51:46.040Z,97180.78
2018-12-07T16:54:18.362Z,97177.98
2018-12-07T16:56:54.637Z,97182.13
2018-12-07T16:59:25.734Z,97177.26
2018-12-07T17:02:03.053Z,97171.57
2018-12-07T17:04:40.246Z,97162.00
2018-12-07T17:07:13.265Z,97158.52
2018-12-07T17:09:49.409Z,97159.95
2018-12-07T17:12:25.727Z,97159.19
2018-12-07T17:14:59.009Z,97156.22
2018-12-07T17:17:32.210Z,97153.34
2018-12-07T17:20:03.405Z,97151.70
2018-12-07T17:22:36.318Z,97150.80
2018-12-07T17:25:10.244Z,97159.42
2018-12-07T17:27:43.306Z,97149.41
2018-12-07T17:30:16.343Z,97142.14
2018-12-07T17:32:49.491Z,97130.92
2018-12-07T17:35:26.225Z,97128.39
2018-12-07T17:37:57.219Z,97100.02
2018-12-07T17:40:29.773Z,97097.73
2018-12-07T17:43:02.640Z,97096.00
2018-12-07T17:45:34.779Z,97092.73
2018-12-07T17:48:10.972Z,97093.36
2018-12-07T17:50:44.065Z,97088.61
2018-12-07T17:53:16.386Z,97083.69
2018-12-07T17:55:47.386Z,97083.81
2018-12-07T17:58:20.133Z,97069.77
2018-12-07T18:00:53.017Z,97057.43
2018-12-07T18:03:25.115Z,97045.70
2018-12-07T18:06:03.759Z,97039.45
2018-12-07T18:08:37.531Z,97035.61
2018-12-07T18:11:11.988Z,97022.17
2018-12-07T18:13:45.110Z,97035.84
2018-12-07T18:16:22.282Z,97038.59
2018-12-07T18:18:57.240Z,97039.78
2018-12-07T18:21:29.642Z,97051.27
2018-12-07T18:24:07.737Z,97062.06
2018-12-07T18:26:41.903Z,97053.00
2018-12-07T18:29:15.893Z,97053.39
2018-12-07T18:31:48.395Z,97044.68
2018-12-07T18:34:21.325Z,97038.64
2018-12-07T18:36:54.577Z,97034.77
2018-12-07T18:39:27.712Z,97024.44
2018-12-07T18:42:00.975Z,97022.84
2018-12-07T18:44:34.078Z,97018.81
2018-12-07T18:47:10.199Z,97006.49
2018-12-07T18:49:40.490Z,97007.02
2018-12-07T18:52:13.221Z,97007.30
2018-12-07T18:54:49.657Z,97001.72
2018-12-07T18:57:22.659Z,97006.33
2018-12-07T18:59:56.021Z,96992.36
2018-12-07T19:02:28.924Z,96979.50
2018-12-07T19:05:01.703Z,96975.56
2018-12-07T19:07:38.385Z,96971.11
2018-12-07T19:10:11.778Z,96964.55
2018-12-07T19:12:45.700Z,96955.78
2018-12-07T19:15:22.139Z,96945.92
2018-12-07T19:17:53.164Z,96936.45
2018-12-07T19:20:26.031Z,96926.66
2018-12-07T19:22:59.002Z,96929.05
2018-12-07T19:25:32.019Z,96916.39
2018-12-07T19:28:09.264Z,96918.72
2018-12-07T19:30:42.046Z,96901.25
2018-12-07T19:33:15.424Z,96894.70
2018-12-07T19:35:48.313Z,96900.08
2018-12-07T19:38:21.046Z,96896.80
2018-12-07T19:40:51.983Z,96893.91
2018-12-07T19:43:25.209Z,96888.57
2018-12-07T19:45:57.449Z,96893.69
2018-12-07T19:48:28.415Z,96881.03
2018-12-07T19:51:05.294Z,96879.48
2018-12-07T19:53:37.845Z,96866.02
2018-12-07T19:56:13.968Z,96866.87
2018-12-07T19:58:47.294Z,96860.77
2018-12-07T20:01:20.285Z,96859.82
2018-12-07T20:03:50.789Z,96852.65
2018-12-07T20:06:23.791Z,96854.98
2018-12-07T20:13:59.063Z,96817.70
2018-12-07T20:16:31.173Z,96821.09
2018-12-07T20:19:07.395Z,96828.58
2018-12-07T20:21:43.653Z,96817.42
2018-12-07T20:24:16.090Z,96814.05
2018-12-07T20:26:48.592Z,96820.13
2018-12-07T20:29:21.566Z,96811.80
2018-12-07T20:31:54.911Z,96819.03
2018-12-07T20:34:27.830Z,96803.92
2018-12-07T20:37:00.586Z,96801.98
2018-12-07T20:39:31.650Z,96795.36
2018-12-07T20:42:04.703Z,96784.03
2018-12-07T20:44:37.078Z,96767.45
2018-12-07T20:47:10.331Z,96767.67
2018-12-07T20:49:43.310Z,96770.08
2018-12-07T20:52:15.548Z,96775.53
2018-12-07T20:54:48.882Z,96790.25
2018-12-07T20:57:21.941Z,96786.95
2018-12-07T20:59:56.053Z,96788.41
2018-12-07T21:02:29.010Z,96786.88
2018-12-07T21:05:32.307Z,96785.95
2018-12-07T21:11:38.718Z,96771.78
2018-12-07T21:14:34.216Z,96783.50
2018-12-07T21:17:30.259Z,96778.16
2018-12-07T21:20:27.217Z,96772.31
2018-12-07T21:23:00.288Z,96780.17
2018-12-07T21:25:30.729Z,96769.37
2018-12-07T21:28:03.689Z,96759.66
2018-12-07T21:31:01.358Z,96755.66
2018-12-07T21:35:23.598Z,96758.66
2018-12-07T21:37:59.789Z,96736.38
2018-12-07T21:40:32.822Z,96723.94
2018-12-07T21:43:05.564Z,96739.20
2018-12-07T21:45:36.730Z,96734.67
2018-12-07T21:48:28.948Z,96717.70
2018-12-07T21:51:43.466Z,96713.48
2018-12-07T21:54:16.567Z,96718.09
2018-12-07T21:56:49.554Z,96717.55
2018-12-07T21:59:22.802Z,96712.14
2018-12-07T22:01:59.610Z,96705.97
2018-12-07T22:04:32.877Z,96706.88
2018-12-07T22:07:06.061Z,96709.12
2018-12-07T22:09:38.871Z,96719.61
2018-12-07T22:12:15.171Z,96721.38
2018-12-07T22:14:53.443Z,96712.84
2018-12-07T22:17:26.350Z,96720.92
2018-12-07T22:19:58.588Z,96722.94
2018-12-07T22:22:29.659Z,96732.66
2018-12-07T22:25:02.123Z,96724.86
2018-12-07T22:27:34.458Z,96712.91
2018-12-07T22:30:11.154Z,96721.23
2018-12-07T22:32:43.907Z,96715.34
2018-12-07T22:35:16.300Z,96722.55
2018-12-07T22:37:49.498Z,96702.48
2018-12-07T22:40:25.815Z,96700.52
2018-12-07T22:42:57.973Z,96696.30
2018-12-07T22:45:31.531Z,96699.31
2018-12-07T22:48:04.208Z,96697.36
2018-12-07T22:50:41.180Z,96705.17
2018-12-07T22:53:13.722Z,96705.88
2018-12-07T22:55:46.292Z,96702.21
2018-12-07T22:58:18.391Z,96701.28
2018-12-07T23:00:51.242Z,96726.67
2018-12-07T23:03:22.000Z,96746.22
2018-12-07T23:05:54.185Z,96729.44
2018-12-07T23:08:27.119Z,96715.59
2018-12-07T23:10:59.613Z,96712.57
2018-12-07T23:13:35.856Z,96727.85
2018-12-07T23:23:34.425Z,96717.44
2018-12-07T23:26:06.601Z,96727.23
2018-12-07T23:28:40.432Z,96720.31
2018-12-07T23:31:10.765Z,96712.00
2018-12-07T23:33:42.952Z,96715.80
2018-12-07T23:36:15.835Z,96728.22
2018-12-07T23:38:48.210Z,96729.25
2018-12-07T23:41:24.569Z,96745.69
2018-12-07T23:44:00.681Z,96750.73
2018-12-07T23:46:32.910Z,96760.30
2018-12-07T23:49:05.323Z,96774.90
2018-12-07T23:51:41.510Z,96775.08
2018-12-07T23:54:13.592Z,96768.59
2018-12-07T23:56:45.702Z,96768.06
2018-12-07T23:59:17.986Z,96770.76
